KEYE

Eagle Creek Airpark

Indianapolis, Indiana, USA
METAR KEYE 212253Z AUTO 33013KT 10SM FEW044 BKN075 OVC090 24/21 A2988 RMK AO2 RAB41E51 SLP112 P0000 T02390206
Observed Flight Rules
Aug-21 @ 22:53 UTC (54 minutes ago) Visual Flight Rules
Wind Visibility Clouds
330° at 13 knots 10 miles
  • Few at 4,400' AGL
  • Broken at 7,500' AGL
  • Overcast at 9,000' AGL
Temperatures Readings Precipitation
Current 24°C / 75°F
Dewpoint 21°C / 70°F
Humidity 83%
Altimeter 29.88" Hg
Pressure 1011.2 hPa
Elevation 248
Current Rain 0.005
METAR KEYE 212253Z AUTO 33013KT 10SM FEW044 BKN075 OVC090 24/21 A2988 RMK AO2 RAB41E51 SLP112 P0000 T02390206
Observed Flight Rules
Aug-21 @ 22:53 UTC
(54 minutes ago)
VFR
Wind Visibility
330° at 13 knots 10 miles
Clouds
  • Few at 4,400' AGL
  • Broken at 7,500' AGL
  • Overcast at 9,000' AGL
Temperature Dewpoint
24°C / 75°F 21°C / 70°F
Humidity Altimeter Pressure
83% 29.88" Hg 1011.2 hPa
Current Rain
0.005